createdAt,value
2019-04-28T00:00:45.255Z,0.00
2019-04-28T00:01:45.227Z,0.00
2019-04-28T00:02:45.197Z,0.00
2019-04-28T00:03:45.242Z,0.00
2019-04-28T00:04:45.197Z,0.00
2019-04-28T00:05:45.231Z,0.00
2019-04-28T00:06:45.227Z,0.00
2019-04-28T00:07:45.157Z,0.00
2019-04-28T00:08:45.158Z,0.00
2019-04-28T00:09:45.147Z,0.00
2019-04-28T00:10:45.113Z,0.00
2019-04-28T00:11:45.676Z,0.00
2019-04-28T00:12:45.100Z,0.00
2019-04-28T00:13:45.134Z,0.00
2019-04-28T00:14:45.069Z,0.00
2019-04-28T00:15:45.097Z,0.00
2019-04-28T00:16:45.078Z,0.00
2019-04-28T00:17:45.072Z,0.00
2019-04-28T00:18:45.039Z,0.00
2019-04-28T00:19:45.028Z,0.00
2019-04-28T00:20:45.050Z,0.00
2019-04-28T00:21:45.034Z,0.00
2019-04-28T00:22:44.970Z,0.00
2019-04-28T00:23:44.990Z,0.00
2019-04-28T00:24:45.040Z,0.00
2019-04-28T00:25:45.000Z,0.00
2019-04-28T00:26:44.940Z,0.00
2019-04-28T00:27:44.944Z,0.00
2019-04-28T00:28:45.620Z,0.00
2019-04-28T00:29:46.316Z,0.00
2019-04-28T00:30:44.946Z,0.00
2019-04-28T00:31:44.910Z,0.00
2019-04-28T00:32:44.887Z,0.00
2019-04-28T00:33:44.858Z,0.00
2019-04-28T00:34:44.846Z,0.00
2019-04-28T00:35:45.617Z,0.00
2019-04-28T00:36:44.828Z,0.00
2019-04-28T00:37:44.822Z,0.00
2019-04-28T00:38:44.810Z,0.00
2019-04-28T00:39:44.843Z,0.00
2019-04-28T00:40:44.784Z,0.00
2019-04-28T00:41:44.793Z,0.00
2019-04-28T00:42:44.761Z,0.00
2019-04-28T00:43:44.782Z,0.00
2019-04-28T00:44:44.735Z,0.00
2019-04-28T00:45:44.784Z,0.00
2019-04-28T00:46:44.710Z,0.00
2019-04-28T00:47:44.709Z,0.00
2019-04-28T00:48:44.694Z,0.00
2019-04-28T00:49:44.739Z,0.00
2019-04-28T00:50:44.670Z,0.00
2019-04-28T00:51:44.651Z,0.00
2019-04-28T00:52:44.645Z,0.00
2019-04-28T00:53:44.700Z,0.00
2019-04-28T00:54:45.145Z,0.00
2019-04-28T00:55:44.608Z,0.00
2019-04-28T00:56:44.608Z,0.00
2019-04-28T00:57:46.112Z,0.00
2019-04-28T00:58:44.579Z,0.00
2019-04-28T00:59:54.194Z,0.00
2019-04-28T01:00:45.549Z,0.00
2019-04-28T01:01:44.578Z,0.00
2019-04-28T01:02:44.549Z,0.00
2019-04-28T01:03:44.677Z,0.00
2019-04-28T01:06:48.113Z,0.00
2019-04-28T01:07:47.377Z,0.00
2019-04-28T01:08:47.384Z,0.00
2019-04-28T01:09:47.331Z,0.00
2019-04-28T01:10:47.329Z,0.00
2019-04-28T01:11:47.337Z,0.00
2019-04-28T01:12:47.339Z,0.00
2019-04-28T01:13:47.279Z,0.00
2019-04-28T01:14:47.259Z,0.00
2019-04-28T01:15:47.258Z,0.00
2019-04-28T01:16:47.257Z,0.00
2019-04-28T01:17:49.506Z,0.00
2019-04-28T01:18:47.215Z,0.00
2019-04-28T01:19:47.257Z,0.00
2019-04-28T01:20:47.197Z,0.00
2019-04-28T01:21:47.267Z,0.00
2019-04-28T01:22:47.191Z,0.00
2019-04-28T01:23:47.186Z,0.00
2019-04-28T01:24:47.149Z,0.00
2019-04-28T05:02:51.264Z,78.75
2019-04-28T05:03:43.053Z,84.38
2019-04-28T05:04:41.979Z,84.38
2019-04-28T05:05:41.928Z,90.00
2019-04-28T05:06:41.955Z,90.00
2019-04-28T05:07:41.957Z,95.62
2019-04-28T05:08:41.887Z,95.62
2019-04-28T05:09:41.884Z,101.25
2019-04-28T05:10:41.886Z,106.88
2019-04-28T05:11:41.920Z,112.50
2019-04-28T05:12:42.096Z,118.12
2019-04-28T05:13:41.882Z,123.75
2019-04-28T05:14:52.795Z,123.75
2019-04-28T05:15:41.887Z,123.75
2019-04-28T05:16:41.805Z,129.38
2019-04-28T05:17:41.824Z,135.00
2019-04-28T05:18:41.805Z,140.62
2019-04-28T05:19:41.786Z,146.25
2019-04-28T05:20:41.819Z,146.25
2019-04-28T05:21:41.745Z,151.88
2019-04-28T05:22:42.700Z,151.88
2019-04-28T05:23:42.675Z,157.50
2019-04-28T05:24:41.783Z,157.50
2019-04-28T05:25:41.706Z,163.12
2019-04-28T05:26:47.665Z,163.12
2019-04-28T05:27:42.691Z,163.12
2019-04-28T05:28:50.518Z,168.75
2019-04-28T05:29:42.720Z,168.75
2019-04-28T05:30:43.104Z,174.38
2019-04-28T05:31:42.693Z,174.38
2019-04-28T05:38:20.136Z,208.12
2019-04-28T05:39:19.641Z,213.75
2019-04-28T05:45:41.034Z,264.38
2019-04-28T05:50:33.459Z,303.75
2019-04-28T05:51:33.087Z,309.38
2019-04-28T05:52:32.945Z,320.62
2019-04-28T05:53:33.090Z,326.25
2019-04-28T05:54:33.082Z,337.50
2019-04-28T05:55:32.971Z,337.50
2019-04-28T05:56:32.988Z,343.12
2019-04-28T05:57:32.915Z,348.75
2019-04-28T05:58:32.898Z,360.00
2019-04-28T05:59:32.892Z,360.00
2019-04-28T06:00:33.122Z,360.00
2019-04-28T06:11:22.648Z,410.62
2019-04-28T06:15:05.664Z,433.12
2019-04-28T06:16:22.147Z,444.38
2019-04-28T06:17:04.370Z,455.62
2019-04-28T06:18:04.813Z,466.88
2019-04-28T07:36:21.987Z,1226.25
2019-04-28T07:37:21.035Z,1215.00
2019-04-28T07:38:21.121Z,1192.50
2019-04-28T07:39:21.025Z,1192.50
2019-04-28T07:40:21.114Z,1220.62
2019-04-28T07:41:20.900Z,1237.50
2019-04-28T07:42:21.010Z,1254.38
2019-04-28T07:45:29.953Z,1366.88
2019-04-28T07:46:29.786Z,1434.38
2019-04-28T07:47:29.655Z,1473.75
2019-04-28T07:48:29.656Z,1518.75
2019-04-28T07:49:29.618Z,1563.75
2019-04-28T07:50:29.671Z,1591.88
2019-04-28T07:51:29.671Z,1563.75
2019-04-28T07:52:29.608Z,1530.00
2019-04-28T07:53:29.624Z,1541.25
2019-04-28T07:54:29.565Z,1501.88
2019-04-28T07:55:29.542Z,1462.50
2019-04-28T07:56:29.600Z,1434.38
2019-04-28T07:57:29.542Z,1383.75
2019-04-28T07:58:29.557Z,1406.25
2019-04-28T07:59:29.660Z,1440.00
2019-04-28T08:00:29.575Z,1383.75
2019-04-28T08:01:29.482Z,1293.75
2019-04-28T08:02:29.590Z,1260.00
2019-04-28T08:03:29.463Z,1265.62
2019-04-28T08:04:29.481Z,1271.25
2019-04-28T08:05:29.459Z,1260.00
2019-04-28T08:06:29.500Z,1276.88
2019-04-28T08:07:29.455Z,1299.38
2019-04-28T08:08:29.401Z,1372.50
2019-04-28T08:09:29.413Z,1507.50
2019-04-28T08:10:29.400Z,1996.88
2019-04-28T08:11:29.368Z,1912.50
2019-04-28T08:12:29.364Z,1906.88
2019-04-28T08:17:28.620Z,2548.12
2019-04-28T08:18:28.194Z,3144.38
2019-04-28T08:19:27.991Z,2385.00
2019-04-28T08:20:27.990Z,3729.38
2019-04-28T08:21:27.876Z,4770.00
2019-04-28T08:22:27.908Z,4663.12
2019-04-28T08:23:27.844Z,4393.12
2019-04-28T08:24:27.858Z,2565.00
2019-04-28T08:25:38.683Z,1873.12
2019-04-28T08:26:28.768Z,2047.50
2019-04-28T08:27:27.810Z,2818.12
2019-04-28T08:31:50.999Z,2013.75
2019-04-28T08:40:57.206Z,1721.25
2019-04-28T08:41:57.146Z,1586.25
2019-04-28T08:42:57.100Z,1490.62
2019-04-28T08:43:58.792Z,1440.00
2019-04-28T08:50:01.381Z,2030.62
2019-04-28T08:51:01.368Z,2868.75
2019-04-28T08:52:01.396Z,3566.25
2019-04-28T08:53:01.382Z,4156.88
2019-04-28T08:54:01.316Z,5203.12
2019-04-28T08:56:30.180Z,4460.62
2019-04-28T08:57:30.166Z,4803.75
2019-04-28T08:58:30.117Z,2255.62
2019-04-28T08:59:30.179Z,5197.50
2019-04-28T09:00:38.693Z,5107.50
2019-04-28T09:01:30.140Z,4044.38
2019-04-28T09:02:30.274Z,4162.50
2019-04-28T09:03:30.036Z,5197.50
2019-04-28T09:04:30.082Z,5023.12
2019-04-28T09:05:30.078Z,5163.75
2019-04-28T09:06:30.034Z,5220.00
2019-04-28T09:07:30.027Z,5242.50
2019-04-28T09:08:30.070Z,5315.62
2019-04-28T09:09:30.026Z,5276.25
2019-04-28T09:13:31.202Z,5377.50
2019-04-28T09:14:30.795Z,5355.00
2019-04-28T09:15:30.714Z,5495.62
2019-04-28T09:16:30.723Z,5529.38
2019-04-28T09:17:30.689Z,5900.62
2019-04-28T09:18:30.746Z,4770.00
2019-04-28T09:19:30.707Z,2604.38
2019-04-28T09:20:31.269Z,4359.38
2019-04-28T09:21:30.665Z,3690.00
2019-04-28T09:22:30.771Z,5473.12
2019-04-28T09:24:48.755Z,2075.62
2019-04-28T09:25:48.516Z,1867.50
2019-04-28T09:26:48.535Z,1800.00
2019-04-28T09:27:48.483Z,1766.25
2019-04-28T09:28:48.535Z,1670.62
2019-04-28T09:29:48.448Z,1580.62
2019-04-28T09:30:48.397Z,1513.12
2019-04-28T09:31:48.428Z,1490.62
2019-04-28T09:32:48.381Z,1496.25
2019-04-28T09:33:48.374Z,1524.38
2019-04-28T09:34:48.359Z,1569.38
2019-04-28T09:35:48.372Z,1597.50
2019-04-28T09:36:48.460Z,1631.25
2019-04-28T09:37:48.320Z,1653.75
2019-04-28T09:38:48.354Z,1665.00
2019-04-28T09:39:48.305Z,1681.88
2019-04-28T09:40:48.307Z,1693.12
2019-04-28T09:41:49.035Z,1704.38
2019-04-28T09:42:48.334Z,1721.25
2019-04-28T09:43:48.277Z,1738.12
2019-04-28T09:44:48.249Z,1766.25
2019-04-28T09:45:48.283Z,1794.38
2019-04-28T09:46:48.522Z,1828.12
2019-04-28T09:47:48.290Z,1895.62
2019-04-28T09:48:48.240Z,1963.12
2019-04-28T09:49:48.220Z,2036.25
2019-04-28T09:56:21.920Z,3071.25
2019-04-28T10:03:39.443Z,1535.62
2019-04-28T10:08:29.558Z,1665.00
2019-04-28T10:32:53.112Z,2176.88
2019-04-28T10:33:38.503Z,1738.12
2019-04-28T10:34:38.504Z,1620.00
2019-04-28T10:35:38.605Z,1535.62
2019-04-28T11:07:35.514Z,3380.62
2019-04-28T11:08:35.015Z,3346.88
2019-04-28T11:09:35.044Z,3425.62
2019-04-28T11:10:34.981Z,4921.88
2019-04-28T11:11:35.214Z,2986.88
2019-04-28T11:12:34.931Z,3318.75
2019-04-28T11:13:34.959Z,3251.25
2019-04-28T11:14:34.899Z,3369.38
2019-04-28T11:15:34.898Z,3690.00
2019-04-28T11:16:34.918Z,3903.75
2019-04-28T11:17:34.894Z,3757.50
2019-04-28T11:18:35.009Z,3363.75
2019-04-28T11:19:34.885Z,3594.38
2019-04-28T11:20:34.906Z,3442.50
2019-04-28T11:21:34.848Z,3431.25
2019-04-28T11:22:34.823Z,3121.88
2019-04-28T11:23:34.806Z,3211.88
2019-04-28T11:24:37.072Z,2458.12
2019-04-28T11:25:35.963Z,2193.75
2019-04-28T11:26:34.810Z,2064.38
2019-04-28T11:27:35.151Z,1935.00
2019-04-28T11:30:37.271Z,1558.12
2019-04-28T11:31:37.166Z,1524.38
2019-04-28T11:34:48.776Z,1524.38
2019-04-28T11:35:48.616Z,1563.75
2019-04-28T11:36:50.429Z,1603.12
2019-04-28T11:37:48.735Z,1636.88
2019-04-28T11:40:00.925Z,1732.50
2019-04-28T11:41:11.396Z,1766.25
2019-04-28T11:45:09.933Z,2025.00
2019-04-28T11:57:34.265Z,2143.12
2019-04-28T11:58:37.982Z,2092.50
2019-04-28T12:00:51.181Z,1996.88
2019-04-28T12:01:50.937Z,1940.62
2019-04-28T12:02:51.012Z,1878.75
2019-04-28T12:03:50.870Z,1816.88
2019-04-28T12:04:50.858Z,1794.38
2019-04-28T12:05:50.945Z,1794.38
2019-04-28T12:06:50.844Z,1766.25
2019-04-28T12:07:50.829Z,1721.25
2019-04-28T12:08:50.867Z,1665.00
2019-04-28T12:10:03.360Z,1614.38
2019-04-28T12:10:51.835Z,1552.50
2019-04-28T12:11:50.868Z,1490.62
2019-04-28T12:12:50.814Z,1445.62
2019-04-28T12:13:50.795Z,1406.25
2019-04-28T12:14:50.769Z,1378.12
2019-04-28T12:15:50.750Z,1361.25
2019-04-28T12:16:50.737Z,1344.38
2019-04-28T12:17:50.721Z,1327.50
2019-04-28T12:18:50.714Z,1316.25
2019-04-28T12:19:50.800Z,1321.88
2019-04-28T12:20:50.686Z,1327.50
2019-04-28T12:21:50.661Z,1333.12
2019-04-28T12:22:50.654Z,1321.88
2019-04-28T12:23:50.661Z,1305.00
2019-04-28T12:24:50.637Z,1276.88
2019-04-28T12:25:50.626Z,1243.12
2019-04-28T12:26:50.621Z,1209.38
2019-04-28T12:27:50.621Z,1186.88
2019-04-28T12:28:50.589Z,1147.50
2019-04-28T12:29:50.640Z,1119.38
2019-04-28T12:30:50.567Z,1102.50
2019-04-28T12:31:50.579Z,1085.62
2019-04-28T12:32:50.555Z,1080.00
2019-04-28T12:33:50.533Z,1080.00
2019-04-28T12:58:38.488Z,1316.25
2019-04-28T12:59:38.013Z,1282.50
2019-04-28T13:00:37.983Z,1248.75
2019-04-28T13:02:55.865Z,1113.75
2019-04-28T13:03:55.862Z,1023.75
2019-04-28T13:34:26.314Z,1006.88
2019-04-28T13:35:25.627Z,984.38
2019-04-28T13:36:26.711Z,956.25
2019-04-28T13:37:25.598Z,939.38
2019-04-28T13:38:25.578Z,939.38
2019-04-28T13:39:25.566Z,950.62
2019-04-28T13:40:25.597Z,967.50
2019-04-28T13:41:25.551Z,984.38
2019-04-28T13:42:25.547Z,1001.25
2019-04-28T13:43:25.573Z,1018.12
2019-04-28T13:44:25.573Z,1029.38
2019-04-28T13:45:25.568Z,1035.00
2019-04-28T13:46:25.608Z,1040.62
2019-04-28T13:50:14.382Z,1096.88
2019-04-28T13:51:14.305Z,1119.38
2019-04-28T13:52:15.292Z,1153.12
2019-04-28T13:53:14.239Z,1186.88
2019-04-28T13:54:14.258Z,1220.62
2019-04-28T13:55:14.240Z,1260.00
2019-04-28T14:25:29.800Z,1153.12
2019-04-28T14:26:30.732Z,1186.88
2019-04-28T14:34:49.860Z,1215.00
2019-04-28T14:37:02.204Z,1265.62
2019-04-28T14:38:16.438Z,1282.50
2019-04-28T14:39:01.872Z,1299.38
2019-04-28T14:40:01.861Z,1327.50
2019-04-28T14:41:12.566Z,1372.50
2019-04-28T14:42:01.865Z,1395.00
2019-04-28T14:43:01.862Z,1406.25
2019-04-28T14:47:49.608Z,1248.75
2019-04-28T14:50:53.774Z,1248.75
2019-04-28T14:52:03.674Z,1276.88
2019-04-28T14:52:53.170Z,1299.38
2019-04-28T14:59:03.991Z,1170.00
2019-04-28T15:00:04.010Z,1153.12
2019-04-28T15:21:27.952Z,832.50
2019-04-28T15:22:27.581Z,815.62
2019-04-28T15:23:27.376Z,798.75
2019-04-28T15:24:27.332Z,787.50
2019-04-28T15:25:27.322Z,781.88
2019-04-28T15:26:27.448Z,781.88
2019-04-28T15:27:27.308Z,787.50
2019-04-28T15:28:27.267Z,804.38
2019-04-28T15:29:27.294Z,798.75
2019-04-28T15:30:27.264Z,793.12
2019-04-28T15:31:27.248Z,798.75
2019-04-28T15:32:27.225Z,821.25
2019-04-28T15:33:27.208Z,838.12
2019-04-28T15:34:27.302Z,849.38
2019-04-28T15:35:27.581Z,866.25
2019-04-28T15:36:27.177Z,866.25
2019-04-28T15:37:27.170Z,866.25
2019-04-28T15:38:27.184Z,838.12
2019-04-28T15:39:27.140Z,832.50
2019-04-28T15:40:27.141Z,826.88
2019-04-28T15:41:27.153Z,826.88
2019-04-28T15:42:27.169Z,821.25
2019-04-28T15:43:27.120Z,810.00
2019-04-28T15:44:27.098Z,787.50
2019-04-28T15:45:27.083Z,776.25
2019-04-28T15:46:27.065Z,770.62
2019-04-28T15:48:45.202Z,1035.00
2019-04-28T15:49:44.808Z,804.38
2019-04-28T15:50:44.801Z,781.88
2019-04-28T15:51:44.769Z,776.25
2019-04-28T15:52:44.762Z,720.00
2019-04-28T15:53:44.785Z,703.12
2019-04-28T15:54:44.757Z,691.88
2019-04-28T15:55:44.809Z,675.00
2019-04-28T15:56:44.893Z,646.88
2019-04-28T15:57:44.743Z,607.50
2019-04-28T15:58:44.762Z,596.25
2019-04-28T15:59:44.689Z,579.38
2019-04-28T16:00:44.703Z,579.38
2019-04-28T16:01:44.682Z,596.25
2019-04-28T16:02:44.663Z,607.50
2019-04-28T16:03:44.688Z,624.38
2019-04-28T16:04:44.643Z,630.00
2019-04-28T16:05:44.619Z,697.50
2019-04-28T16:06:44.700Z,736.88
2019-04-28T16:07:44.619Z,624.38
2019-04-28T16:08:44.585Z,534.38
2019-04-28T16:09:51.529Z,506.25
2019-04-28T16:10:45.453Z,483.75
2019-04-28T16:11:44.600Z,466.88
2019-04-28T16:12:44.547Z,466.88
2019-04-28T16:13:44.722Z,466.88
2019-04-28T16:14:44.523Z,461.25
2019-04-28T16:15:44.994Z,455.62
2019-04-28T16:16:44.519Z,455.62
2019-04-28T16:17:44.488Z,528.75
2019-04-28T16:18:44.490Z,511.88
2019-04-28T16:19:44.492Z,455.62
2019-04-28T16:20:44.460Z,444.38
2019-04-28T16:21:44.568Z,444.38
2019-04-28T16:22:44.476Z,444.38
2019-04-28T16:23:44.434Z,461.25
2019-04-28T16:24:44.497Z,461.25
2019-04-28T16:25:44.412Z,461.25
2019-04-28T16:26:44.404Z,466.88
2019-04-28T16:27:44.945Z,472.50
2019-04-28T16:28:44.447Z,461.25
2019-04-28T16:29:44.429Z,444.38
2019-04-28T16:30:44.380Z,438.75
2019-04-28T16:31:44.342Z,433.12
2019-04-28T16:32:44.705Z,427.50
2019-04-28T16:33:54.152Z,421.88
2019-04-28T16:34:44.592Z,416.25
2019-04-28T16:35:44.330Z,427.50
2019-04-28T16:36:44.308Z,433.12
2019-04-28T16:37:44.273Z,421.88
2019-04-28T16:38:44.421Z,427.50
2019-04-28T17:03:19.355Z,343.12
2019-04-28T17:04:18.866Z,337.50
2019-04-28T17:05:18.803Z,331.88
2019-04-28T17:06:18.814Z,331.88
2019-04-28T17:07:18.923Z,326.25
2019-04-28T17:08:19.309Z,320.62
2019-04-28T17:09:28.518Z,315.00
2019-04-28T17:10:18.744Z,315.00
2019-04-28T17:11:18.747Z,320.62
2019-04-28T17:12:18.752Z,309.38
2019-04-28T17:13:18.798Z,309.38
2019-04-28T17:14:18.705Z,309.38
2019-04-28T17:15:18.696Z,303.75
2019-04-28T17:16:18.692Z,303.75
2019-04-28T17:17:18.677Z,298.12
2019-04-28T17:18:18.655Z,298.12
2019-04-28T17:19:18.667Z,292.50
2019-04-28T17:20:18.646Z,292.50
2019-04-28T17:21:18.647Z,292.50
2019-04-28T17:22:18.685Z,286.88
2019-04-28T17:23:18.628Z,286.88
2019-04-28T17:24:18.638Z,281.25
2019-04-28T17:25:18.595Z,281.25
2019-04-28T17:26:18.582Z,275.62
2019-04-28T17:27:18.575Z,270.00
2019-04-28T17:28:18.570Z,270.00
2019-04-28T17:29:18.540Z,270.00
2019-04-28T17:30:18.564Z,264.38
2019-04-28T17:31:18.534Z,264.38
2019-04-28T17:32:19.364Z,258.75
2019-04-28T17:33:18.496Z,258.75
2019-04-28T17:34:18.492Z,253.12
2019-04-28T17:35:18.520Z,247.50
2019-04-28T17:37:31.908Z,241.88
2019-04-28T17:38:32.927Z,236.25
2019-04-28T17:39:31.041Z,230.62
2019-04-28T17:40:30.956Z,225.00
2019-04-28T17:41:30.911Z,225.00
2019-04-28T17:42:30.911Z,219.38
2019-04-28T17:45:05.991Z,202.50
2019-04-28T18:03:20.446Z,135.00
2019-04-28T18:04:20.328Z,135.00
2019-04-28T18:12:59.824Z,106.88
2019-04-28T18:13:52.196Z,101.25
2019-04-28T18:23:55.139Z,73.12
2019-04-28T18:24:54.731Z,67.50
2019-04-28T18:26:09.972Z,61.88
2019-04-28T18:26:54.671Z,61.88
2019-04-28T18:27:54.707Z,56.25
2019-04-28T18:28:57.791Z,56.25
2019-04-28T18:29:56.918Z,50.62
2019-04-28T18:33:41.343Z,45.00
2019-04-28T18:34:40.472Z,39.38
2019-04-28T18:35:40.218Z,39.38
2019-04-28T18:36:40.147Z,33.75
2019-04-28T18:37:40.135Z,33.75
2019-04-28T18:38:40.139Z,33.75
2019-04-28T18:39:40.164Z,28.12
2019-04-28T18:40:40.097Z,28.12
2019-04-28T18:41:41.270Z,28.12
2019-04-28T18:42:40.195Z,22.50
2019-04-28T18:43:43.391Z,22.50
2019-04-28T18:44:40.167Z,22.50
2019-04-28T18:45:40.188Z,16.88
2019-04-28T18:48:00.805Z,16.88
2019-04-28T18:48:59.393Z,11.25
2019-04-28T18:49:59.348Z,11.25
2019-04-28T18:50:58.986Z,11.25
2019-04-28T18:51:59.148Z,11.25
2019-04-28T18:52:59.042Z,5.62
2019-04-28T18:53:58.959Z,5.62
2019-04-28T18:54:58.933Z,5.62
2019-04-28T18:55:58.976Z,5.62
2019-04-28T18:56:58.927Z,5.62
2019-04-28T18:57:58.892Z,5.62
2019-04-28T18:58:58.948Z,5.62
2019-04-28T18:59:58.867Z,0.00
2019-04-28T19:00:58.909Z,0.00
2019-04-28T19:01:58.930Z,0.00
2019-04-28T19:02:58.923Z,0.00
2019-04-28T19:03:58.911Z,0.00
2019-04-28T19:04:58.934Z,0.00
2019-04-28T19:05:58.863Z,0.00
2019-04-28T19:07:05.112Z,0.00
2019-04-28T19:07:59.782Z,0.00
2019-04-28T19:09:09.964Z,0.00
2019-04-28T19:09:58.896Z,0.00
2019-04-28T19:10:58.743Z,0.00
2019-04-28T19:11:58.772Z,0.00
2019-04-28T19:12:58.807Z,0.00
2019-04-28T19:13:58.706Z,0.00
2019-04-28T19:14:58.760Z,0.00
2019-04-28T19:15:58.790Z,0.00
2019-04-28T19:16:58.713Z,0.00
2019-04-28T19:17:58.833Z,0.00
2019-04-28T19:18:58.689Z,0.00
2019-04-28T19:19:58.675Z,0.00
2019-04-28T19:20:58.665Z,0.00
2019-04-28T19:21:58.645Z,0.00
2019-04-28T19:22:58.609Z,0.00
2019-04-28T19:23:58.627Z,0.00
2019-04-28T19:24:58.580Z,0.00
2019-04-28T19:25:58.702Z,0.00
2019-04-28T19:26:58.561Z,0.00
2019-04-28T19:27:58.596Z,0.00
2019-04-28T19:28:58.672Z,0.00
2019-04-28T19:29:58.530Z,0.00
2019-04-28T19:30:58.529Z,0.00
2019-04-28T19:31:58.607Z,0.00
2019-04-28T19:32:58.638Z,0.00
2019-04-28T19:33:58.494Z,0.00
2019-04-28T19:34:58.499Z,0.00
2019-04-28T19:35:58.469Z,0.00
2019-04-28T19:36:58.491Z,0.00
2019-04-28T19:37:58.460Z,0.00
2019-04-28T19:39:03.507Z,0.00
2019-04-28T19:39:59.484Z,0.00
2019-04-28T19:40:58.466Z,0.00
2019-04-28T19:41:58.458Z,0.00
2019-04-28T19:42:58.495Z,0.00
2019-04-28T19:43:58.382Z,0.00
2019-04-28T19:44:58.447Z,0.00
2019-04-28T19:45:58.431Z,0.00
2019-04-28T19:46:58.358Z,0.00
2019-04-28T19:47:58.340Z,0.00
2019-04-28T19:48:58.328Z,0.00
2019-04-28T19:49:58.326Z,0.00
2019-04-28T19:50:58.303Z,0.00
2019-04-28T19:51:58.399Z,0.00
2019-04-28T19:52:58.285Z,0.00
2019-04-28T19:53:58.303Z,0.00
2019-04-28T19:54:58.256Z,0.00
2019-04-28T19:55:58.262Z,0.00
2019-04-28T19:56:58.239Z,0.00
2019-04-28T19:57:58.283Z,0.00
2019-04-28T19:58:58.218Z,0.00
2019-04-28T19:59:58.277Z,0.00
2019-04-28T20:00:58.195Z,0.00
2019-04-28T20:01:58.177Z,0.00
2019-04-28T20:02:58.168Z,0.00
2019-04-28T20:03:58.182Z,0.00
2019-04-28T20:04:58.142Z,0.00
2019-04-28T20:05:58.145Z,0.00
2019-04-28T20:06:58.135Z,0.00
